createdAt,value
2019-02-28T00:02:53.874Z,23.77
2019-02-28T00:05:42.537Z,25.03
2019-02-28T00:08:31.241Z,26.60
2019-02-28T00:11:19.933Z,26.73
2019-02-28T00:14:08.079Z,26.97
2019-02-28T00:16:56.825Z,26.67
2019-02-28T00:19:45.139Z,28.83
2019-02-28T00:22:28.047Z,28.63
2019-02-28T00:25:09.093Z,30.87
2019-02-28T00:27:53.518Z,30.23
2019-02-28T00:30:37.398Z,32.43
2019-02-28T00:33:17.583Z,32.13
2019-02-28T00:35:58.608Z,33.47
2019-02-28T00:44:04.426Z,32.50
2019-02-28T00:46:52.466Z,32.90
2019-02-28T00:49:40.367Z,34.63
2019-02-28T00:52:28.395Z,32.30
2019-02-28T00:55:16.185Z,32.60
2019-02-28T00:58:03.975Z,34.60
2019-02-28T01:00:51.766Z,32.50
2019-02-28T01:03:39.574Z,33.80
2019-02-28T01:06:27.362Z,33.27
2019-02-28T01:09:15.163Z,32.53
2019-02-28T01:12:02.933Z,32.67
2019-02-28T01:14:50.723Z,33.43
2019-02-28T01:17:38.497Z,34.00
2019-02-28T01:20:26.297Z,34.37
2019-02-28T01:23:14.129Z,34.27
2019-02-28T01:26:01.912Z,35.67
2019-02-28T01:28:49.701Z,34.17
2019-02-28T01:31:37.501Z,35.60
2019-02-28T01:34:25.347Z,35.33
2019-02-28T01:37:06.613Z,34.73
2019-02-28T01:39:47.202Z,34.20
2019-02-28T01:42:28.000Z,35.73
2019-02-28T01:45:10.052Z,35.20
2019-02-28T01:47:51.729Z,35.73
2019-02-28T01:50:32.611Z,35.57
2019-02-28T01:53:18.693Z,34.70
2019-02-28T01:55:56.241Z,35.40
2019-02-28T01:58:36.459Z,35.20
2019-02-28T02:01:17.430Z,35.87
2019-02-28T02:03:58.414Z,37.77
2019-02-28T02:06:39.227Z,35.33
2019-02-28T02:09:19.911Z,36.87
2019-02-28T02:12:00.941Z,38.10
2019-02-28T02:14:44.798Z,38.13
2019-02-28T02:17:23.793Z,37.50
2019-02-28T02:20:04.407Z,36.77
2019-02-28T02:22:45.439Z,36.37
2019-02-28T02:25:26.179Z,38.00
2019-02-28T02:28:06.744Z,38.37
2019-02-28T02:30:35.195Z,39.53
2019-02-28T02:33:22.967Z,39.30
2019-02-28T02:36:10.845Z,38.83
2019-02-28T02:38:58.645Z,38.53
2019-02-28T02:41:46.482Z,40.53
2019-02-28T02:44:34.586Z,39.43
2019-02-28T02:47:22.387Z,39.43
2019-02-28T02:50:35.840Z,40.63
2019-02-28T02:53:20.459Z,41.03
2019-02-28T02:56:08.258Z,41.47
2019-02-28T02:59:01.037Z,41.30
2019-02-28T03:01:45.873Z,41.20
2019-02-28T03:04:33.657Z,40.80
2019-02-28T03:07:24.650Z,41.20
2019-02-28T03:10:30.557Z,40.73
2019-02-28T03:13:18.413Z,40.80
2019-02-28T03:16:06.219Z,40.67
2019-02-28T03:18:58.215Z,40.40
2019-02-28T03:21:43.533Z,41.47
2019-02-28T03:24:33.016Z,39.13
2019-02-28T03:27:18.740Z,42.10
2019-02-28T03:29:56.670Z,43.73
2019-02-28T03:32:42.025Z,42.37
2019-02-28T03:35:19.488Z,44.23
2019-02-28T03:38:00.541Z,42.07
2019-02-28T03:40:41.886Z,44.37
2019-02-28T03:43:22.721Z,43.23
2019-02-28T03:46:06.306Z,44.80
2019-02-28T03:48:45.885Z,45.90
2019-02-28T03:51:28.755Z,44.33
2019-02-28T03:54:09.861Z,44.53
2019-02-28T03:56:52.713Z,44.53
2019-02-28T03:59:33.226Z,45.10
2019-02-28T04:02:20.787Z,36.03
2019-02-28T04:04:56.990Z,45.10
2019-02-28T04:07:37.775Z,44.60
2019-02-28T04:10:21.982Z,43.07
2019-02-28T04:13:01.859Z,44.57
2019-02-28T04:15:49.792Z,44.50
2019-02-28T04:18:25.098Z,46.37
2019-02-28T04:21:10.359Z,45.83
2019-02-28T04:23:48.459Z,46.23
2019-02-28T04:26:30.077Z,46.87
2019-02-28T04:29:11.882Z,46.37
2019-02-28T04:31:52.965Z,45.23
2019-02-28T04:34:33.748Z,45.60
2019-02-28T04:37:14.847Z,48.17
2019-02-28T04:39:55.441Z,44.63
2019-02-28T04:42:37.290Z,45.03
2019-02-28T04:45:18.484Z,47.20
2019-02-28T04:47:59.288Z,45.30
2019-02-28T04:50:40.441Z,43.97
2019-02-28T04:53:21.507Z,45.63
2019-02-28T04:56:02.569Z,46.00
2019-02-28T04:58:31.029Z,44.43
2019-02-28T05:01:18.825Z,45.47
2019-02-28T05:04:06.626Z,45.53
2019-02-28T05:06:55.160Z,45.87
2019-02-28T05:09:45.255Z,43.90
2019-02-28T05:12:36.291Z,42.13
2019-02-28T05:15:37.402Z,45.03
2019-02-28T05:18:23.454Z,44.27
2019-02-28T05:21:11.234Z,43.37
2019-02-28T05:23:59.055Z,44.40
2019-02-28T05:26:46.898Z,44.50
2019-02-28T05:29:34.719Z,43.23
2019-02-28T05:32:22.679Z,44.63
2019-02-28T05:35:10.605Z,44.97
2019-02-28T05:37:58.402Z,43.90
2019-02-28T05:40:41.358Z,46.50
2019-02-28T05:43:22.521Z,47.30
2019-02-28T05:46:03.648Z,44.50
2019-02-28T05:48:44.983Z,45.03
2019-02-28T05:51:25.890Z,46.23
2019-02-28T05:54:06.549Z,48.83
2019-02-28T05:56:47.402Z,48.23
2019-02-28T05:59:28.140Z,47.77
2019-02-28T06:02:08.865Z,49.40
2019-02-28T06:04:49.530Z,50.23
2019-02-28T06:07:30.587Z,48.77
2019-02-28T06:10:11.355Z,48.93
2019-02-28T06:12:52.347Z,50.73
2019-02-28T06:15:34.205Z,33.97
2019-02-28T06:18:15.741Z,48.27
2019-02-28T06:20:56.538Z,47.93
2019-02-28T06:23:40.784Z,52.33
2019-02-28T06:26:20.338Z,51.10
2019-02-28T06:29:04.623Z,53.97
2019-02-28T06:31:45.521Z,52.17
2019-02-28T06:34:26.830Z,51.53
2019-02-28T06:37:07.448Z,49.43
2019-02-28T06:39:48.430Z,49.13
2019-02-28T06:42:28.819Z,44.80
2019-02-28T06:45:09.570Z,51.80
2019-02-28T06:47:50.265Z,44.33
2019-02-28T06:50:31.167Z,52.53
2019-02-28T06:53:11.617Z,52.00
2019-02-28T06:55:52.301Z,45.93
2019-02-28T06:58:33.420Z,54.33
2019-02-28T07:01:14.470Z,49.43
2019-02-28T07:03:54.874Z,52.67
2019-02-28T07:06:36.616Z,56.67
2019-02-28T07:09:17.585Z,53.93
2019-02-28T07:11:58.068Z,51.77
2019-02-28T07:14:38.865Z,54.67
2019-02-28T07:17:20.318Z,54.67
2019-02-28T07:20:01.942Z,54.87
2019-02-28T07:22:43.570Z,56.07
2019-02-28T07:25:24.119Z,53.77
2019-02-28T07:28:04.996Z,54.67
2019-02-28T07:30:45.752Z,53.03
2019-02-28T07:33:27.312Z,45.13
2019-02-28T07:36:09.306Z,38.23
2019-02-28T07:41:37.878Z,61.17
2019-02-28T07:44:22.200Z,47.13
2019-02-28T07:47:00.999Z,58.80
2019-02-28T07:49:41.746Z,57.47
2019-02-28T07:52:22.261Z,53.87
2019-02-28T07:55:03.568Z,56.80
2019-02-28T07:57:44.619Z,55.77
2019-02-28T08:00:25.677Z,46.17
2019-02-28T08:03:06.810Z,56.17
2019-02-28T08:05:47.411Z,32.40
2019-02-28T08:08:27.678Z,32.33
2019-02-28T08:11:08.721Z,45.73
2019-02-28T08:13:49.844Z,58.30
2019-02-28T08:16:33.807Z,54.57
2019-02-28T08:19:12.931Z,32.70
2019-02-28T08:21:53.597Z,57.73
2019-02-28T08:24:35.850Z,54.50
2019-02-28T08:27:17.017Z,46.93
2019-02-28T08:29:57.554Z,45.80
2019-02-28T08:32:42.748Z,56.70
2019-02-28T08:35:20.546Z,47.13
2019-02-28T08:38:01.482Z,54.33
2019-02-28T08:40:42.931Z,53.40
2019-02-28T08:43:27.180Z,28.07
2019-02-28T08:46:09.569Z,54.87
2019-02-28T08:48:49.278Z,54.77
2019-02-28T08:51:30.968Z,51.30
2019-02-28T08:54:12.513Z,51.17
2019-02-28T08:56:53.106Z,54.03
2019-02-28T08:59:33.975Z,54.47
2019-02-28T09:02:18.150Z,55.20
2019-02-28T09:04:56.940Z,54.07
2019-02-28T09:07:37.870Z,51.33
2019-02-28T09:10:18.598Z,51.70
2019-02-28T09:12:59.136Z,51.07
2019-02-28T09:15:39.931Z,50.57
2019-02-28T09:18:20.758Z,48.40
2019-02-28T09:21:01.917Z,49.10
2019-02-28T09:23:42.474Z,46.27
2019-02-28T09:26:23.037Z,45.67
2019-02-28T09:29:03.882Z,43.23
2019-02-28T09:31:44.354Z,41.50
2019-02-28T09:34:25.203Z,18.53
2019-02-28T09:37:06.274Z,20.40
2019-02-28T09:39:46.872Z,16.67
2019-02-28T09:42:27.928Z,33.73
2019-02-28T09:48:00.787Z,29.07
2019-02-28T09:53:31.733Z,22.37
2019-02-28T09:56:12.339Z,14.17
2019-02-28T10:01:49.601Z,25.50
2019-02-28T10:04:18.371Z,26.10
2019-02-28T10:07:06.303Z,13.97
2019-02-28T10:09:54.394Z,27.10
2019-02-28T10:12:43.023Z,27.87
2019-02-28T10:15:32.287Z,26.60
2019-02-28T10:18:20.206Z,26.57
2019-02-28T10:21:08.016Z,21.00
2019-02-28T10:23:57.010Z,24.23
2019-02-28T10:26:48.261Z,25.00
2019-02-28T10:29:35.107Z,17.60
2019-02-28T10:32:23.535Z,21.87
2019-02-28T10:35:11.377Z,24.00
2019-02-28T10:37:59.375Z,24.33
2019-02-28T10:40:49.356Z,15.33
2019-02-28T10:43:30.311Z,19.63
2019-02-28T10:46:13.338Z,23.00
2019-02-28T10:48:53.444Z,23.13
2019-02-28T10:51:33.785Z,10.67
2019-02-28T10:54:15.371Z,23.10
2019-02-28T10:56:56.322Z,21.07
2019-02-28T10:59:37.923Z,23.27
2019-02-28T11:02:19.912Z,23.77
2019-02-28T11:05:05.105Z,25.17
2019-02-28T11:07:46.840Z,25.67
2019-02-28T11:10:28.880Z,25.80
2019-02-28T11:13:09.697Z,24.57
2019-02-28T11:15:50.159Z,24.33
2019-02-28T11:18:31.027Z,24.47
2019-02-28T11:21:12.855Z,22.93
2019-02-28T11:26:44.724Z,23.13
2019-02-28T11:29:25.017Z,19.13
2019-02-28T11:38:06.675Z,22.37
2019-02-28T11:40:54.684Z,21.17
2019-02-28T11:43:30.303Z,20.60
2019-02-28T11:46:11.228Z,21.63
2019-02-28T11:48:54.146Z,20.97
2019-02-28T11:54:25.115Z,21.17
2019-02-28T11:57:06.816Z,22.13
2019-02-28T11:59:48.758Z,21.47
2019-02-28T12:02:29.333Z,20.20
2019-02-28T12:05:12.322Z,30.20
2019-02-28T12:07:52.582Z,22.07
2019-02-28T12:10:33.863Z,20.07
2019-02-28T12:13:02.850Z,20.53
2019-02-28T12:15:51.002Z,21.10
2019-02-28T12:18:19.468Z,21.73
2019-02-28T12:21:07.323Z,20.77
2019-02-28T12:23:57.316Z,22.57
2019-02-28T12:26:44.970Z,19.80
2019-02-28T12:29:32.889Z,21.87
2019-02-28T12:32:20.762Z,20.60
2019-02-28T12:35:09.377Z,21.33
2019-02-28T12:37:57.161Z,19.93
2019-02-28T12:40:45.749Z,19.83
2019-02-28T12:43:34.465Z,19.10
2019-02-28T12:46:22.677Z,19.70
2019-02-28T12:49:10.447Z,20.30
2019-02-28T12:51:58.255Z,19.67
2019-02-28T12:54:46.039Z,19.53
2019-02-28T12:57:33.835Z,19.10
2019-02-28T13:00:40.953Z,18.03
2019-02-28T13:03:28.759Z,18.10
2019-02-28T13:06:16.558Z,19.43
2019-02-28T13:09:25.094Z,17.90
2019-02-28T13:12:12.903Z,18.93
2019-02-28T13:15:00.694Z,17.77
2019-02-28T13:17:48.897Z,17.17
2019-02-28T13:20:37.669Z,19.57
2019-02-28T13:23:25.483Z,18.87
2019-02-28T13:26:13.296Z,20.27
2019-02-28T13:29:01.086Z,17.33
2019-02-28T13:31:42.441Z,15.83
2019-02-28T13:34:25.063Z,18.90
2019-02-28T13:37:05.875Z,19.77
2019-02-28T13:39:46.934Z,18.33
2019-02-28T13:42:27.986Z,20.33
2019-02-28T13:45:13.254Z,21.10
2019-02-28T13:47:51.684Z,18.33
2019-02-28T13:50:32.854Z,19.47
2019-02-28T13:53:03.433Z,18.73
2019-02-28T13:55:52.654Z,15.17
2019-02-28T13:58:40.534Z,19.73
2019-02-28T14:01:28.646Z,8.50
2019-02-28T14:04:18.700Z,18.13
2019-02-28T14:09:41.491Z,22.10
2019-02-28T14:12:29.283Z,21.20
2019-02-28T14:15:37.887Z,22.20
2019-02-28T14:18:25.937Z,15.00
2019-02-28T14:21:13.966Z,21.30
2019-02-28T14:24:01.758Z,22.47
2019-02-28T14:26:50.520Z,26.57
2019-02-28T14:29:39.399Z,26.33
2019-02-28T14:32:20.406Z,26.63
2019-02-28T14:35:01.228Z,24.67
2019-02-28T14:37:41.841Z,23.67
2019-02-28T14:40:22.555Z,23.20
2019-02-28T14:43:03.228Z,27.00
2019-02-28T14:45:43.987Z,25.23
2019-02-28T14:48:25.353Z,23.93
2019-02-28T14:51:06.009Z,25.10
2019-02-28T14:53:49.218Z,23.23
2019-02-28T14:56:29.790Z,22.53
2019-02-28T14:59:10.414Z,22.47
2019-02-28T15:01:53.087Z,25.30
2019-02-28T15:04:33.181Z,28.57
2019-02-28T15:07:13.810Z,26.20
2019-02-28T15:09:54.798Z,26.70
2019-02-28T15:12:35.503Z,26.80
2019-02-28T15:15:18.075Z,27.33
2019-02-28T15:17:59.685Z,28.43
2019-02-28T15:20:40.268Z,33.70
2019-02-28T15:23:09.126Z,27.60
2019-02-28T15:25:56.948Z,25.20
2019-02-28T15:28:45.553Z,24.03
2019-02-28T15:31:34.441Z,20.73
2019-02-28T15:34:15.376Z,22.00
2019-02-28T15:36:59.180Z,23.87
2019-02-28T15:39:38.288Z,23.23
2019-02-28T15:42:18.797Z,19.67
2019-02-28T15:44:47.496Z,19.77
2019-02-28T15:47:35.440Z,19.27
2019-02-28T15:53:18.293Z,19.87
2019-02-28T15:56:13.031Z,18.67
2019-02-28T15:58:56.291Z,19.87
2019-02-28T16:01:44.321Z,18.47
2019-02-28T16:04:32.169Z,17.10
2019-02-28T16:07:20.388Z,16.63
2019-02-28T16:10:28.511Z,18.43
2019-02-28T16:13:17.250Z,16.57
2019-02-28T16:16:05.190Z,15.93
2019-02-28T16:18:47.268Z,16.63
2019-02-28T16:21:29.075Z,17.47
2019-02-28T16:24:10.006Z,16.93
2019-02-28T16:26:53.416Z,17.17
2019-02-28T16:29:21.391Z,17.17
2019-02-28T16:32:14.154Z,17.43
2019-02-28T16:35:00.421Z,16.57
2019-02-28T16:37:48.320Z,15.40
2019-02-28T16:40:36.599Z,17.37
2019-02-28T16:43:24.373Z,17.03
2019-02-28T16:46:12.372Z,16.10
2019-02-28T16:49:02.054Z,19.30
2019-02-28T16:51:50.219Z,19.63
2019-02-28T16:54:38.023Z,18.90
2019-02-28T16:57:26.002Z,18.43
2019-02-28T17:03:09.511Z,17.93
2019-02-28T17:05:50.550Z,18.70
2019-02-28T17:08:33.360Z,18.20
2019-02-28T17:11:14.687Z,7.77
2019-02-28T17:14:01.696Z,16.23
2019-02-28T17:17:02.007Z,17.90
2019-02-28T17:19:43.320Z,17.93
2019-02-28T17:22:26.768Z,10.77
2019-02-28T17:25:06.363Z,17.93
2019-02-28T17:30:56.297Z,17.23
2019-02-28T17:36:20.672Z,18.97
2019-02-28T17:39:01.895Z,19.83
2019-02-28T17:47:52.361Z,17.37
2019-02-28T17:50:59.576Z,19.00
2019-02-28T17:54:07.024Z,17.30
2019-02-28T17:56:56.476Z,18.60
2019-02-28T18:00:05.244Z,17.40
2019-02-28T18:03:13.734Z,15.77
2019-02-28T18:06:23.140Z,13.80
2019-02-28T18:09:32.141Z,13.87
2019-02-28T18:12:40.713Z,14.60
2019-02-28T18:15:21.346Z,14.30
2019-02-28T18:18:05.362Z,13.83
2019-02-28T18:21:13.162Z,12.97
2019-02-28T18:24:22.018Z,14.03
2019-02-28T18:27:29.205Z,13.73
2019-02-28T18:30:37.828Z,14.77
2019-02-28T18:33:19.550Z,15.73
2019-02-28T18:36:00.601Z,15.90
2019-02-28T18:38:41.530Z,15.17
2019-02-28T18:41:22.133Z,15.30
2019-02-28T18:44:03.735Z,15.73
2019-02-28T18:46:44.932Z,15.60
2019-02-28T18:49:26.638Z,16.23
2019-02-28T18:52:08.350Z,15.23
2019-02-28T18:54:49.489Z,15.63
2019-02-28T18:57:30.175Z,14.93
2019-02-28T19:00:11.831Z,15.27
2019-02-28T19:02:52.483Z,15.20
2019-02-28T19:05:33.274Z,15.03
2019-02-28T19:08:14.175Z,15.20
2019-02-28T19:10:55.178Z,14.83
2019-02-28T19:13:35.801Z,14.33
2019-02-28T19:16:17.031Z,14.27
2019-02-28T19:18:57.532Z,15.50
2019-02-28T19:21:38.418Z,15.30
2019-02-28T19:24:19.109Z,15.63
2019-02-28T19:27:00.254Z,16.70
2019-02-28T19:29:41.511Z,15.77
2019-02-28T19:32:22.425Z,15.07
2019-02-28T19:35:03.422Z,15.50
2019-02-28T19:37:44.245Z,15.30
2019-02-28T19:40:24.705Z,16.07
2019-02-28T19:43:05.212Z,18.23
2019-02-28T19:45:45.677Z,18.67
2019-02-28T19:48:26.243Z,19.17
2019-02-28T19:51:07.403Z,20.70
2019-02-28T19:53:48.150Z,23.63
2019-02-28T19:56:28.582Z,25.00
2019-02-28T19:59:09.548Z,25.10
2019-02-28T20:01:50.355Z,23.90
2019-02-28T20:04:18.805Z,22.27
2019-02-28T20:07:06.916Z,21.93
2019-02-28T20:09:54.797Z,21.03
2019-02-28T20:12:42.562Z,20.87
2019-02-28T20:18:25.186Z,20.83
2019-02-28T20:24:07.659Z,22.83
2019-02-28T20:26:55.483Z,20.30
2019-02-28T20:29:43.267Z,22.83
2019-02-28T20:32:31.063Z,24.23
2019-02-28T20:35:26.133Z,28.27
2019-02-28T20:38:08.427Z,28.97
2019-02-28T20:40:56.199Z,28.97
2019-02-28T20:43:44.337Z,30.30
2019-02-28T20:46:32.467Z,26.57
2019-02-28T20:49:12.753Z,27.67
2019-02-28T20:51:55.415Z,24.13
2019-02-28T20:54:35.849Z,20.30
2019-02-28T20:57:16.384Z,18.57
2019-02-28T20:59:56.986Z,17.23
2019-02-28T21:02:37.954Z,15.77
2019-02-28T21:05:18.374Z,15.17
2019-02-28T21:07:59.106Z,15.93
2019-02-28T21:10:40.292Z,14.67
2019-02-28T21:13:08.737Z,17.77
2019-02-28T21:15:56.939Z,15.07
2019-02-28T21:18:37.547Z,15.63
2019-02-28T21:21:18.324Z,15.40
2019-02-28T21:23:59.090Z,15.63
2019-02-28T21:26:39.921Z,16.60
2019-02-28T21:29:20.910Z,17.17
2019-02-28T21:32:01.823Z,15.67
2019-02-28T21:34:42.666Z,8.17
2019-02-28T21:37:11.143Z,16.17
2019-02-28T21:40:00.750Z,9.33
2019-02-28T21:42:48.686Z,14.47
2019-02-28T21:45:36.885Z,13.83
2019-02-28T21:48:24.683Z,14.20
2019-02-28T21:51:12.458Z,16.87
2019-02-28T21:54:00.263Z,15.23
2019-02-28T21:56:48.138Z,14.47
2019-02-28T21:59:35.926Z,13.23
2019-02-28T22:02:23.714Z,14.00
2019-02-28T22:05:12.369Z,13.13
2019-02-28T22:08:00.165Z,15.23
2019-02-28T22:10:48.192Z,15.77
2019-02-28T22:13:36.250Z,14.80
2019-02-28T22:16:24.054Z,12.37
2019-02-28T22:19:12.249Z,12.60
2019-02-28T22:21:53.023Z,11.97
2019-02-28T22:24:41.785Z,12.77
2019-02-28T22:27:29.626Z,12.07
2019-02-28T22:30:55.955Z,12.50
2019-02-28T22:33:38.417Z,12.40
2019-02-28T22:36:20.862Z,12.17
2019-02-28T22:39:02.070Z,12.47
2019-02-28T22:41:42.858Z,13.07
2019-02-28T22:44:23.552Z,12.77
2019-02-28T22:47:04.132Z,12.20
2019-02-28T22:49:45.120Z,11.67
2019-02-28T22:52:25.607Z,12.53
2019-02-28T22:55:06.670Z,12.60
2019-02-28T22:57:47.395Z,13.03
2019-02-28T23:00:29.728Z,13.60
2019-02-28T23:03:10.740Z,13.83
2019-02-28T23:05:51.647Z,14.20
2019-02-28T23:08:32.655Z,14.10
2019-02-28T23:11:13.898Z,12.77
2019-02-28T23:13:55.020Z,13.33
2019-02-28T23:16:36.138Z,12.30
2019-02-28T23:19:16.735Z,11.87
2019-02-28T23:21:57.911Z,10.70
2019-02-28T23:24:38.742Z,12.50
2019-02-28T23:27:19.684Z,12.00
2019-02-28T23:30:00.644Z,12.47
2019-02-28T23:32:41.714Z,11.93
2019-02-28T23:35:22.641Z,12.03
2019-02-28T23:38:03.561Z,11.67
2019-02-28T23:40:44.471Z,13.47
2019-02-28T23:43:25.342Z,12.00
2019-02-28T23:46:05.638Z,12.67
2019-02-28T23:48:46.537Z,13.33
2019-02-28T23:51:27.332Z,11.67
2019-02-28T23:54:07.849Z,12.87
2019-02-28T23:56:48.562Z,12.00
2019-02-28T23:59:27.370Z,13.30
